KAUN

Auburn Municipal Airport

Auburn, California, USA
METAR KAUN 180315Z AUTO 00000KT 10SM CLR 15/04 A2993 RMK A01
Observed Flight Rules
Sep-18 @ 03:15 UTC (14 hours ago) Visual Flight Rules
Visibility Clouds
10 miles
  • Clear skies
Temperatures Readings
Current 15°C / 59°F
Dewpoint 4°C / 39°F
Humidity 48%
Altimeter 29.93" Hg
Pressure 1014 hPa
Elevation 467
METAR KAUN 180315Z AUTO 00000KT 10SM CLR 15/04 A2993 RMK A01
Observed Flight Rules
Sep-18 @ 03:15 UTC
(14 hours ago)
VFR
Clouds
  • Clear skies
Temperature Dewpoint
15°C / 59°F 4°C / 39°F
Humidity Altimeter Pressure
48% 29.93" Hg 1014 hPa